Rillton, Pennsylvania
Current Conditions -  °F | °C
As of 12:53 AM on Saturday 20 Dec 2014 (Local Time) from KAGC Reporting Station
Overcast Overcast  
Wind Chill: 29°   Ceiling: 2500
Heat Index: 29°   Visibility: 10mi
Dew Point: 17°   Wind: 3mph
Humidity: 61%   Direction: 360°N
Pressure: 30.22"   Gusts: NA
Location:  40.29°N, 79.73°W
Report Text: KAGC 200553Z 36003KT 10SM OVC025 M02/M08 A3022 RMK AO2 SLP253 T10171083 11011 21017 58007
Loading
Personal Weather Stations






























Interactive Weather Map New forecast layout! Learn more

10-Day Weather Forecast

Advertisements
Track Severe Weather on mobile